sensor_id;sensor_type;location;lat;lon;timestamp;temperature;humidity
1391;DHT22;690;51.454;7.194;2023-06-05T00:01:31;12.20;99.90
1391;DHT22;690;51.454;7.194;2023-06-05T00:04:09;12.20;99.90
1391;DHT22;690;51.454;7.194;2023-06-05T00:06:46;12.20;99.90
1391;DHT22;690;51.454;7.194;2023-06-05T00:09:14;12.20;99.90
1391;DHT22;690;51.454;7.194;2023-06-05T00:11:51;12.10;99.90
1391;DHT22;690;51.454;7.194;2023-06-05T00:14:19;12.00;99.90
1391;DHT22;690;51.454;7.194;2023-06-05T00:16:51;12.00;99.90
1391;DHT22;690;51.454;7.194;2023-06-05T00:19:19;11.90;99.90
1391;DHT22;690;51.454;7.194;2023-06-05T00:21:45;11.90;99.90
1391;DHT22;690;51.454;7.194;2023-06-05T00:24:12;11.90;99.90
1391;DHT22;690;51.454;7.194;2023-06-05T00:26:39;11.80;99.90
1391;DHT22;690;51.454;7.194;2023-06-05T00:29:06;11.80;99.90
1391;DHT22;690;51.454;7.194;2023-06-05T00:31:33;11.70;99.90
1391;DHT22;690;51.454;7.194;2023-06-05T00:34:01;11.70;99.90
1391;DHT22;690;51.454;7.194;2023-06-05T00:36:29;11.70;99.90
1391;DHT22;690;51.454;7.194;2023-06-05T00:38:58;11.60;99.90
1391;DHT22;690;51.454;7.194;2023-06-05T00:41:25;11.60;99.90
1391;DHT22;690;51.454;7.194;2023-06-05T00:43:51;11.60;99.90
1391;DHT22;690;51.454;7.194;2023-06-05T00:46:19;11.60;99.90
1391;DHT22;690;51.454;7.194;2023-06-05T00:48:46;11.50;99.90
1391;DHT22;690;51.454;7.194;2023-06-05T00:51:15;11.50;99.90
1391;DHT22;690;51.454;7.194;2023-06-05T00:53:45;11.40;99.90
1391;DHT22;690;51.454;7.194;2023-06-05T00:56:13;11.40;99.90
1391;DHT22;690;51.454;7.194;2023-06-05T00:58:42;11.30;99.90
1391;DHT22;690;51.454;7.194;2023-06-05T01:01:10;11.30;99.90
1391;DHT22;690;51.454;7.194;2023-06-05T01:03:38;11.20;99.90
1391;DHT22;690;51.454;7.194;2023-06-05T01:06:05;11.20;99.90
1391;DHT22;690;51.454;7.194;2023-06-05T01:08:34;11.10;99.90
1391;DHT22;690;51.454;7.194;2023-06-05T01:11:08;11.10;99.90
1391;DHT22;690;51.454;7.194;2023-06-05T01:13:41;11.10;99.90
1391;DHT22;690;51.454;7.194;2023-06-05T01:16:09;11.00;99.90
1391;DHT22;690;51.454;7.194;2023-06-05T01:18:37;11.00;99.90
1391;DHT22;690;51.454;7.194;2023-06-05T01:21:10;10.90;99.90
1391;DHT22;690;51.454;7.194;2023-06-05T01:23:41;10.90;99.90
1391;DHT22;690;51.454;7.194;2023-06-05T01:26:15;10.90;99.90
1391;DHT22;690;51.454;7.194;2023-06-05T01:28:47;10.80;99.90
1391;DHT22;690;51.454;7.194;2023-06-05T01:31:19;10.80;99.90
1391;DHT22;690;51.454;7.194;2023-06-05T01:33:50;10.80;99.90
1391;DHT22;690;51.454;7.194;2023-06-05T01:36:22;10.80;99.90
1391;DHT22;690;51.454;7.194;2023-06-05T01:38:51;10.70;99.90
1391;DHT22;690;51.454;7.194;2023-06-05T01:41:20;10.70;99.90
1391;DHT22;690;51.454;7.194;2023-06-05T01:43:47;10.70;99.90
1391;DHT22;690;51.454;7.194;2023-06-05T01:46:16;10.60;99.90
1391;DHT22;690;51.454;7.194;2023-06-05T01:48:44;10.50;99.90
1391;DHT22;690;51.454;7.194;2023-06-05T01:51:11;10.50;99.90
1391;DHT22;690;51.454;7.194;2023-06-05T01:53:38;10.50;99.90
1391;DHT22;690;51.454;7.194;2023-06-05T01:56:06;10.40;99.90
1391;DHT22;690;51.454;7.194;2023-06-05T01:58:34;10.40;99.90
1391;DHT22;690;51.454;7.194;2023-06-05T02:01:02;10.30;99.90
1391;DHT22;690;51.454;7.194;2023-06-05T02:03:30;10.30;99.90
1391;DHT22;690;51.454;7.194;2023-06-05T02:05:58;10.30;99.90
1391;DHT22;690;51.454;7.194;2023-06-05T02:08:25;10.30;99.90
1391;DHT22;690;51.454;7.194;2023-06-05T02:10:53;10.30;99.90
1391;DHT22;690;51.454;7.194;2023-06-05T02:13:22;10.20;99.90
1391;DHT22;690;51.454;7.194;2023-06-05T02:15:52;10.20;99.90
1391;DHT22;690;51.454;7.194;2023-06-05T02:18:22;10.10;99.90
1391;DHT22;690;51.454;7.194;2023-06-05T02:20:53;10.10;99.90
1391;DHT22;690;51.454;7.194;2023-06-05T02:23:21;10.00;99.90
1391;DHT22;690;51.454;7.194;2023-06-05T02:25:49;10.00;99.90
1391;DHT22;690;51.454;7.194;2023-06-05T02:28:15;9.90;99.90
1391;DHT22;690;51.454;7.194;2023-06-05T02:30:44;9.90;99.90
1391;DHT22;690;51.454;7.194;2023-06-05T02:33:13;9.80;99.90
1391;DHT22;690;51.454;7.194;2023-06-05T02:35:41;9.80;1.00
1391;DHT22;690;51.454;7.194;2023-06-05T02:38:08;9.80;1.00
1391;DHT22;690;51.454;7.194;2023-06-05T02:40:35;9.80;1.00
1391;DHT22;690;51.454;7.194;2023-06-05T02:43:02;9.80;1.00
1391;DHT22;690;51.454;7.194;2023-06-05T02:45:32;9.80;1.00
1391;DHT22;690;51.454;7.194;2023-06-05T02:48:01;9.70;1.00
1391;DHT22;690;51.454;7.194;2023-06-05T02:50:28;9.70;1.00
1391;DHT22;690;51.454;7.194;2023-06-05T02:52:55;9.70;1.00
1391;DHT22;690;51.454;7.194;2023-06-05T02:55:22;9.70;1.00
1391;DHT22;690;51.454;7.194;2023-06-05T02:57:49;9.60;1.00
1391;DHT22;690;51.454;7.194;2023-06-05T03:00:16;9.60;1.00
1391;DHT22;690;51.454;7.194;2023-06-05T03:02:44;9.60;1.00
1391;DHT22;690;51.454;7.194;2023-06-05T03:05:15;9.50;1.00
1391;DHT22;690;51.454;7.194;2023-06-05T03:07:50;9.50;1.00
1391;DHT22;690;51.454;7.194;2023-06-05T03:10:19;9.50;1.00
1391;DHT22;690;51.454;7.194;2023-06-05T03:12:45;9.40;1.00
1391;DHT22;690;51.454;7.194;2023-06-05T03:15:12;9.40;1.00
1391;DHT22;690;51.454;7.194;2023-06-05T03:17:42;9.30;1.00
1391;DHT22;690;51.454;7.194;2023-06-05T03:20:09;9.40;1.00
1391;DHT22;690;51.454;7.194;2023-06-05T03:22:38;9.30;1.00
1391;DHT22;690;51.454;7.194;2023-06-05T03:25:05;9.30;1.00
1391;DHT22;690;51.454;7.194;2023-06-05T03:27:33;9.30;1.00
1391;DHT22;690;51.454;7.194;2023-06-05T03:30:00;9.30;1.00
1391;DHT22;690;51.454;7.194;2023-06-05T03:32:27;9.30;1.00
1391;DHT22;690;51.454;7.194;2023-06-05T03:34:54;9.30;1.00
1391;DHT22;690;51.454;7.194;2023-06-05T03:37:21;9.30;1.00
1391;DHT22;690;51.454;7.194;2023-06-05T03:39:49;9.30;1.00
1391;DHT22;690;51.454;7.194;2023-06-05T03:42:16;9.20;1.00
1391;DHT22;690;51.454;7.194;2023-06-05T03:44:43;9.20;1.00
1391;DHT22;690;51.454;7.194;2023-06-05T03:47:10;9.20;1.00
1391;DHT22;690;51.454;7.194;2023-06-05T03:49:40;9.20;1.00
1391;DHT22;690;51.454;7.194;2023-06-05T03:52:12;9.20;1.00
1391;DHT22;690;51.454;7.194;2023-06-05T03:54:40;9.10;1.00
1391;DHT22;690;51.454;7.194;2023-06-05T03:57:13;9.10;1.00
1391;DHT22;690;51.454;7.194;2023-06-05T03:59:40;9.10;1.00
1391;DHT22;690;51.454;7.194;2023-06-05T04:02:07;9.10;1.00
1391;DHT22;690;51.454;7.194;2023-06-05T04:04:34;9.10;1.00
1391;DHT22;690;51.454;7.194;2023-06-05T04:07:01;9.10;1.00
1391;DHT22;690;51.454;7.194;2023-06-05T04:09:28;9.10;1.00
1391;DHT22;690;51.454;7.194;2023-06-05T04:11:55;9.10;1.00
1391;DHT22;690;51.454;7.194;2023-06-05T04:14:24;9.10;1.00
1391;DHT22;690;51.454;7.194;2023-06-05T04:16:51;9.10;1.00
1391;DHT22;690;51.454;7.194;2023-06-05T04:19:18;9.10;1.00
1391;DHT22;690;51.454;7.194;2023-06-05T04:21:45;9.20;1.00
1391;DHT22;690;51.454;7.194;2023-06-05T04:24:12;9.20;1.00
1391;DHT22;690;51.454;7.194;2023-06-05T04:26:40;9.20;1.00
1391;DHT22;690;51.454;7.194;2023-06-05T04:29:08;9.20;1.00
1391;DHT22;690;51.454;7.194;2023-06-05T04:31:41;9.20;1.00
1391;DHT22;690;51.454;7.194;2023-06-05T04:34:07;9.30;1.00
1391;DHT22;690;51.454;7.194;2023-06-05T04:36:35;9.30;1.00
1391;DHT22;690;51.454;7.194;2023-06-05T04:39:03;9.30;1.00
1391;DHT22;690;51.454;7.194;2023-06-05T04:41:32;9.30;1.00
1391;DHT22;690;51.454;7.194;2023-06-05T04:44:02;9.40;1.00
1391;DHT22;690;51.454;7.194;2023-06-05T04:46:29;9.40;1.00
1391;DHT22;690;51.454;7.194;2023-06-05T04:48:57;9.40;1.00
1391;DHT22;690;51.454;7.194;2023-06-05T04:51:24;9.40;1.00
1391;DHT22;690;51.454;7.194;2023-06-05T04:53:51;9.50;1.00
1391;DHT22;690;51.454;7.194;2023-06-05T04:56:19;9.60;1.00
1391;DHT22;690;51.454;7.194;2023-06-05T04:58:47;9.60;1.00
1391;DHT22;690;51.454;7.194;2023-06-05T05:01:16;9.70;1.00
1391;DHT22;690;51.454;7.194;2023-06-05T05:03:43;9.70;1.00
1391;DHT22;690;51.454;7.194;2023-06-05T05:06:16;9.80;1.00
1391;DHT22;690;51.454;7.194;2023-06-05T05:08:43;9.80;1.00
1391;DHT22;690;51.454;7.194;2023-06-05T05:11:11;9.80;1.00
1391;DHT22;690;51.454;7.194;2023-06-05T05:13:39;9.80;1.00
1391;DHT22;690;51.454;7.194;2023-06-05T05:16:06;9.80;1.00
1391;DHT22;690;51.454;7.194;2023-06-05T05:18:33;9.80;1.00
1391;DHT22;690;51.454;7.194;2023-06-05T05:21:02;9.90;1.00
1391;DHT22;690;51.454;7.194;2023-06-05T05:23:32;9.90;1.00
1391;DHT22;690;51.454;7.194;2023-06-05T05:25:59;10.00;1.00
1391;DHT22;690;51.454;7.194;2023-06-05T05:28:25;10.10;1.00
1391;DHT22;690;51.454;7.194;2023-06-05T05:30:53;10.20;1.00
1391;DHT22;690;51.454;7.194;2023-06-05T05:33:21;10.30;1.00
1391;DHT22;690;51.454;7.194;2023-06-05T05:35:49;10.30;1.00
1391;DHT22;690;51.454;7.194;2023-06-05T05:38:16;10.30;1.00
1391;DHT22;690;51.454;7.194;2023-06-05T05:40:44;10.40;1.00
1391;DHT22;690;51.454;7.194;2023-06-05T05:43:11;10.50;1.00
1391;DHT22;690;51.454;7.194;2023-06-05T05:45:38;10.60;1.00
1391;DHT22;690;51.454;7.194;2023-06-05T05:48:06;10.70;1.00
1391;DHT22;690;51.454;7.194;2023-06-05T05:50:33;10.70;1.00
1391;DHT22;690;51.454;7.194;2023-06-05T05:53:00;10.80;1.00
1391;DHT22;690;51.454;7.194;2023-06-05T05:55:27;10.80;99.90
1391;DHT22;690;51.454;7.194;2023-06-05T05:57:55;10.80;99.90
1391;DHT22;690;51.454;7.194;2023-06-05T06:00:22;10.90;99.90
1391;DHT22;690;51.454;7.194;2023-06-05T06:02:49;11.00;99.90
1391;DHT22;690;51.454;7.194;2023-06-05T06:05:19;11.00;99.90
1391;DHT22;690;51.454;7.194;2023-06-05T06:07:47;11.10;99.90
1391;DHT22;690;51.454;7.194;2023-06-05T06:10:13;11.20;99.90
1391;DHT22;690;51.454;7.194;2023-06-05T06:12:41;11.20;99.90
1391;DHT22;690;51.454;7.194;2023-06-05T06:15:10;11.20;99.90
1391;DHT22;690;51.454;7.194;2023-06-05T06:17:37;11.30;99.90
1391;DHT22;690;51.454;7.194;2023-06-05T06:20:05;11.40;99.90
1391;DHT22;690;51.454;7.194;2023-06-05T06:22:35;11.50;99.90
1391;DHT22;690;51.454;7.194;2023-06-05T06:25:01;11.60;99.90
1391;DHT22;690;51.454;7.194;2023-06-05T06:27:29;11.80;99.90
1391;DHT22;690;51.454;7.194;2023-06-05T06:29:56;11.90;99.90
1391;DHT22;690;51.454;7.194;2023-06-05T06:32:25;11.90;99.90
1391;DHT22;690;51.454;7.194;2023-06-05T06:34:52;12.00;99.90
1391;DHT22;690;51.454;7.194;2023-06-05T06:37:20;12.10;99.90
1391;DHT22;690;51.454;7.194;2023-06-05T06:39:48;12.10;99.90
1391;DHT22;690;51.454;7.194;2023-06-05T06:42:15;12.20;99.90
1391;DHT22;690;51.454;7.194;2023-06-05T06:44:42;12.20;99.90
1391;DHT22;690;51.454;7.194;2023-06-05T06:47:09;12.30;99.90
1391;DHT22;690;51.454;7.194;2023-06-05T06:49:37;12.40;99.90
1391;DHT22;690;51.454;7.194;2023-06-05T06:52:05;12.40;99.90
1391;DHT22;690;51.454;7.194;2023-06-05T06:54:32;12.40;99.90
1391;DHT22;690;51.454;7.194;2023-06-05T06:56:59;12.40;99.90
1391;DHT22;690;51.454;7.194;2023-06-05T06:59:26;12.50;99.90
1391;DHT22;690;51.454;7.194;2023-06-05T07:02:09;12.60;99.90
1391;DHT22;690;51.454;7.194;2023-06-05T07:04:38;12.70;99.90
1391;DHT22;690;51.454;7.194;2023-06-05T07:07:08;12.80;99.90
1391;DHT22;690;51.454;7.194;2023-06-05T07:09:35;12.90;99.90
1391;DHT22;690;51.454;7.194;2023-06-05T07:12:02;13.00;99.90
1391;DHT22;690;51.454;7.194;2023-06-05T07:14:31;13.20;99.90
1391;DHT22;690;51.454;7.194;2023-06-05T07:16:58;13.20;99.90
1391;DHT22;690;51.454;7.194;2023-06-05T07:19:26;13.20;99.90
1391;DHT22;690;51.454;7.194;2023-06-05T07:21:55;13.30;99.90
1391;DHT22;690;51.454;7.194;2023-06-05T07:24:22;13.40;99.90
1391;DHT22;690;51.454;7.194;2023-06-05T07:26:51;13.50;99.90
1391;DHT22;690;51.454;7.194;2023-06-05T07:29:18;13.60;99.90
1391;DHT22;690;51.454;7.194;2023-06-05T07:31:47;13.80;99.90
1391;DHT22;690;51.454;7.194;2023-06-05T07:34:14;13.80;99.90
1391;DHT22;690;51.454;7.194;2023-06-05T07:36:44;13.90;99.90
1391;DHT22;690;51.454;7.194;2023-06-05T07:39:12;14.00;99.90
1391;DHT22;690;51.454;7.194;2023-06-05T07:41:40;14.10;99.90
1391;DHT22;690;51.454;7.194;2023-06-05T07:44:08;14.20;99.90
1391;DHT22;690;51.454;7.194;2023-06-05T07:46:35;14.20;99.90
1391;DHT22;690;51.454;7.194;2023-06-05T07:49:03;14.30;99.90
1391;DHT22;690;51.454;7.194;2023-06-05T07:51:30;14.40;99.90
1391;DHT22;690;51.454;7.194;2023-06-05T07:53:59;14.50;99.90
1391;DHT22;690;51.454;7.194;2023-06-05T07:56:27;14.60;99.90
1391;DHT22;690;51.454;7.194;2023-06-05T07:58:54;14.60;99.90
1391;DHT22;690;51.454;7.194;2023-06-05T08:01:21;14.80;99.90
1391;DHT22;690;51.454;7.194;2023-06-05T08:03:48;14.90;99.90
1391;DHT22;690;51.454;7.194;2023-06-05T08:06:15;15.00;99.90
1391;DHT22;690;51.454;7.194;2023-06-05T08:08:43;15.10;99.90
1391;DHT22;690;51.454;7.194;2023-06-05T08:11:10;15.10;99.90
1391;DHT22;690;51.454;7.194;2023-06-05T08:13:38;15.20;99.90
1391;DHT22;690;51.454;7.194;2023-06-05T08:16:05;15.30;99.90
1391;DHT22;690;51.454;7.194;2023-06-05T08:18:32;15.30;99.90
1391;DHT22;690;51.454;7.194;2023-06-05T08:20:59;15.50;99.90
1391;DHT22;690;51.454;7.194;2023-06-05T08:23:26;15.60;99.90
1391;DHT22;690;51.454;7.194;2023-06-05T08:25:53;15.60;99.90
1391;DHT22;690;51.454;7.194;2023-06-05T08:28:20;15.70;99.90
1391;DHT22;690;51.454;7.194;2023-06-05T08:30:49;15.70;99.90
1391;DHT22;690;51.454;7.194;2023-06-05T08:33:17;15.70;99.90
1391;DHT22;690;51.454;7.194;2023-06-05T08:35:45;15.80;99.90
1391;DHT22;690;51.454;7.194;2023-06-05T08:38:12;16.00;99.90
1391;DHT22;690;51.454;7.194;2023-06-05T08:40:39;16.00;99.90
1391;DHT22;690;51.454;7.194;2023-06-05T08:43:07;16.10;99.90
1391;DHT22;690;51.454;7.194;2023-06-05T08:45:34;16.20;99.90
1391;DHT22;690;51.454;7.194;2023-06-05T08:48:05;16.30;99.90
1391;DHT22;690;51.454;7.194;2023-06-05T08:50:37;16.30;99.90
1391;DHT22;690;51.454;7.194;2023-06-05T08:53:04;16.30;99.90
1391;DHT22;690;51.454;7.194;2023-06-05T08:55:31;16.40;99.90
1391;DHT22;690;51.454;7.194;2023-06-05T08:57:59;16.50;99.90
1391;DHT22;690;51.454;7.194;2023-06-05T09:00:26;16.60;99.90
1391;DHT22;690;51.454;7.194;2023-06-05T09:02:53;16.70;99.90
1391;DHT22;690;51.454;7.194;2023-06-05T09:05:24;16.80;99.90
1391;DHT22;690;51.454;7.194;2023-06-05T09:07:51;16.70;99.90
1391;DHT22;690;51.454;7.194;2023-06-05T09:10:22;16.70;99.90
1391;DHT22;690;51.454;7.194;2023-06-05T09:12:54;16.80;99.90
1391;DHT22;690;51.454;7.194;2023-06-05T09:15:22;16.90;99.90
1391;DHT22;690;51.454;7.194;2023-06-05T09:18:02;17.00;99.90
1391;DHT22;690;51.454;7.194;2023-06-05T09:20:32;17.30;99.90
1391;DHT22;690;51.454;7.194;2023-06-05T09:23:00;17.40;99.90
1391;DHT22;690;51.454;7.194;2023-06-05T09:25:43;17.50;99.90
1391;DHT22;690;51.454;7.194;2023-06-05T09:28:13;17.50;99.90
1391;DHT22;690;51.454;7.194;2023-06-05T09:30:54;17.70;99.90
1391;DHT22;690;51.454;7.194;2023-06-05T09:33:21;17.80;99.90
1391;DHT22;690;51.454;7.194;2023-06-05T09:36:06;17.90;99.90
1391;DHT22;690;51.454;7.194;2023-06-05T09:38:33;17.90;99.90
1391;DHT22;690;51.454;7.194;2023-06-05T09:41:04;18.00;99.90
1391;DHT22;690;51.454;7.194;2023-06-05T09:43:31;18.00;99.90
1391;DHT22;690;51.454;7.194;2023-06-05T09:45:59;18.00;99.90
1391;DHT22;690;51.454;7.194;2023-06-05T09:48:26;18.00;99.90
1391;DHT22;690;51.454;7.194;2023-06-05T09:50:53;17.90;99.90
1391;DHT22;690;51.454;7.194;2023-06-05T09:53:21;17.80;99.90
1391;DHT22;690;51.454;7.194;2023-06-05T09:55:49;18.00;99.90
1391;DHT22;690;51.454;7.194;2023-06-05T09:58:17;18.00;99.90
1391;DHT22;690;51.454;7.194;2023-06-05T10:00:46;18.20;99.90
1391;DHT22;690;51.454;7.194;2023-06-05T10:03:16;18.30;99.90
1391;DHT22;690;51.454;7.194;2023-06-05T10:05:44;18.40;99.90
1391;DHT22;690;51.454;7.194;2023-06-05T10:08:11;18.50;99.90
1391;DHT22;690;51.454;7.194;2023-06-05T10:10:41;18.60;99.90
1391;DHT22;690;51.454;7.194;2023-06-05T10:13:09;18.70;99.90
1391;DHT22;690;51.454;7.194;2023-06-05T10:15:38;18.70;99.90
1391;DHT22;690;51.454;7.194;2023-06-05T10:18:08;18.80;99.90
1391;DHT22;690;51.454;7.194;2023-06-05T10:20:35;18.90;99.90
1391;DHT22;690;51.454;7.194;2023-06-05T10:23:04;19.00;99.90
1391;DHT22;690;51.454;7.194;2023-06-05T10:25:33;19.10;99.90
1391;DHT22;690;51.454;7.194;2023-06-05T10:28:26;19.10;99.90
1391;DHT22;690;51.454;7.194;2023-06-05T10:31:18;19.20;99.90
1391;DHT22;690;51.454;7.194;2023-06-05T10:34:02;19.40;99.90
1391;DHT22;690;51.454;7.194;2023-06-05T10:36:53;19.40;99.90
1391;DHT22;690;51.454;7.194;2023-06-05T10:39:23;19.50;99.90
1391;DHT22;690;51.454;7.194;2023-06-05T10:41:51;19.60;99.90
1391;DHT22;690;51.454;7.194;2023-06-05T10:44:38;19.70;99.90
1391;DHT22;690;51.454;7.194;2023-06-05T10:50:25;20.00;99.90
1391;DHT22;690;51.454;7.194;2023-06-05T10:52:54;20.10;99.90
1391;DHT22;690;51.454;7.194;2023-06-05T10:55:22;20.30;99.90
1391;DHT22;690;51.454;7.194;2023-06-05T10:58:03;20.40;99.90
1391;DHT22;690;51.454;7.194;2023-06-05T11:00:32;20.50;99.90
1391;DHT22;690;51.454;7.194;2023-06-05T11:03:00;20.60;99.90
1391;DHT22;690;51.454;7.194;2023-06-05T11:05:27;20.60;99.90
1391;DHT22;690;51.454;7.194;2023-06-05T11:08:13;20.60;99.90
1391;DHT22;690;51.454;7.194;2023-06-05T11:11:05;20.70;99.90
1391;DHT22;690;51.454;7.194;2023-06-05T11:13:54;20.70;99.90
1391;DHT22;690;51.454;7.194;2023-06-05T11:16:29;20.60;99.90
1391;DHT22;690;51.454;7.194;2023-06-05T11:19:36;20.60;99.90
1391;DHT22;690;51.454;7.194;2023-06-05T11:22:07;20.60;99.90
1391;DHT22;690;51.454;7.194;2023-06-05T11:24:35;20.70;99.90
1391;DHT22;690;51.454;7.194;2023-06-05T11:27:02;20.70;99.90
1391;DHT22;690;51.454;7.194;2023-06-05T11:29:31;20.80;99.90
1391;DHT22;690;51.454;7.194;2023-06-05T11:32:00;20.80;99.90
1391;DHT22;690;51.454;7.194;2023-06-05T11:34:26;21.00;99.90
1391;DHT22;690;51.454;7.194;2023-06-05T11:36:55;21.10;99.90
1391;DHT22;690;51.454;7.194;2023-06-05T11:39:23;21.20;99.90
1391;DHT22;690;51.454;7.194;2023-06-05T11:41:55;21.20;99.90
1391;DHT22;690;51.454;7.194;2023-06-05T11:44:34;21.10;99.90
1391;DHT22;690;51.454;7.194;2023-06-05T11:47:03;21.20;99.90
1391;DHT22;690;51.454;7.194;2023-06-05T11:49:30;21.30;99.90
1391;DHT22;690;51.454;7.194;2023-06-05T11:51:57;21.40;99.90
1391;DHT22;690;51.454;7.194;2023-06-05T11:54:29;21.50;99.90
1391;DHT22;690;51.454;7.194;2023-06-05T11:56:57;21.70;99.90
1391;DHT22;690;51.454;7.194;2023-06-05T11:59:25;21.80;99.90
1391;DHT22;690;51.454;7.194;2023-06-05T12:01:52;21.90;99.90
1391;DHT22;690;51.454;7.194;2023-06-05T12:04:21;21.90;99.90
1391;DHT22;690;51.454;7.194;2023-06-05T12:06:48;21.90;99.90
1391;DHT22;690;51.454;7.194;2023-06-05T12:09:17;22.00;99.90
1391;DHT22;690;51.454;7.194;2023-06-05T12:11:45;22.10;99.90
1391;DHT22;690;51.454;7.194;2023-06-05T12:14:12;22.20;99.90
1391;DHT22;690;51.454;7.194;2023-06-05T12:16:40;22.40;99.90
1391;DHT22;690;51.454;7.194;2023-06-05T12:19:13;22.60;99.90
1391;DHT22;690;51.454;7.194;2023-06-05T12:21:41;22.60;99.90
1391;DHT22;690;51.454;7.194;2023-06-05T12:24:09;22.70;99.90
1391;DHT22;690;51.454;7.194;2023-06-05T12:26:49;22.70;99.90
1391;DHT22;690;51.454;7.194;2023-06-05T12:29:19;22.70;99.90
1391;DHT22;690;51.454;7.194;2023-06-05T12:31:46;22.70;99.90
1391;DHT22;690;51.454;7.194;2023-06-05T12:34:13;22.80;99.90
1391;DHT22;690;51.454;7.194;2023-06-05T12:36:43;22.80;99.90
1391;DHT22;690;51.454;7.194;2023-06-05T12:39:11;22.70;99.90
1391;DHT22;690;51.454;7.194;2023-06-05T12:41:38;22.60;99.90
1391;DHT22;690;51.454;7.194;2023-06-05T12:44:05;22.50;99.90
1391;DHT22;690;51.454;7.194;2023-06-05T12:46:34;22.50;99.90
1391;DHT22;690;51.454;7.194;2023-06-05T12:49:02;22.60;99.90
1391;DHT22;690;51.454;7.194;2023-06-05T12:51:30;22.60;99.90
1391;DHT22;690;51.454;7.194;2023-06-05T12:53:59;22.60;99.90
1391;DHT22;690;51.454;7.194;2023-06-05T12:56:26;22.70;99.90
1391;DHT22;690;51.454;7.194;2023-06-05T12:58:54;22.70;99.90
1391;DHT22;690;51.454;7.194;2023-06-05T13:01:22;22.80;99.90
1391;DHT22;690;51.454;7.194;2023-06-05T13:03:49;22.90;99.90
1391;DHT22;690;51.454;7.194;2023-06-05T13:06:16;22.90;99.90
1391;DHT22;690;51.454;7.194;2023-06-05T13:08:43;23.00;99.90
1391;DHT22;690;51.454;7.194;2023-06-05T13:11:12;23.30;99.90
1391;DHT22;690;51.454;7.194;2023-06-05T13:13:40;23.50;99.90
1391;DHT22;690;51.454;7.194;2023-06-05T13:16:06;23.60;99.90
1391;DHT22;690;51.454;7.194;2023-06-05T13:18:34;23.70;99.90
1391;DHT22;690;51.454;7.194;2023-06-05T13:21:03;23.60;99.90
1391;DHT22;690;51.454;7.194;2023-06-05T13:23:30;23.60;99.90
1391;DHT22;690;51.454;7.194;2023-06-05T13:25:57;23.50;99.90
1391;DHT22;690;51.454;7.194;2023-06-05T13:28:26;23.40;99.90
1391;DHT22;690;51.454;7.194;2023-06-05T13:30:53;23.40;99.90
1391;DHT22;690;51.454;7.194;2023-06-05T13:33:20;23.40;99.90
1391;DHT22;690;51.454;7.194;2023-06-05T13:35:48;23.40;99.90
1391;DHT22;690;51.454;7.194;2023-06-05T13:38:15;23.50;99.90
1391;DHT22;690;51.454;7.194;2023-06-05T13:40:42;23.60;99.90
1391;DHT22;690;51.454;7.194;2023-06-05T13:43:14;23.60;99.90
1391;DHT22;690;51.454;7.194;2023-06-05T13:45:42;23.80;99.90
1391;DHT22;690;51.454;7.194;2023-06-05T13:48:09;23.90;99.90
1391;DHT22;690;51.454;7.194;2023-06-05T13:50:36;23.90;99.90
1391;DHT22;690;51.454;7.194;2023-06-05T13:53:02;23.90;99.90
1391;DHT22;690;51.454;7.194;2023-06-05T13:55:29;23.80;99.90
1391;DHT22;690;51.454;7.194;2023-06-05T13:57:56;24.00;99.90
1391;DHT22;690;51.454;7.194;2023-06-05T14:00:28;24.00;99.90
1391;DHT22;690;51.454;7.194;2023-06-05T14:02:56;24.10;99.90
1391;DHT22;690;51.454;7.194;2023-06-05T14:05:24;24.10;99.90
1391;DHT22;690;51.454;7.194;2023-06-05T14:07:52;24.20;99.90
1391;DHT22;690;51.454;7.194;2023-06-05T14:10:21;24.30;99.90
1391;DHT22;690;51.454;7.194;2023-06-05T14:12:49;24.30;99.90
1391;DHT22;690;51.454;7.194;2023-06-05T14:15:16;24.50;99.90
1391;DHT22;690;51.454;7.194;2023-06-05T14:17:43;24.60;99.90
1391;DHT22;690;51.454;7.194;2023-06-05T14:20:12;24.80;99.90
1391;DHT22;690;51.454;7.194;2023-06-05T14:22:39;24.80;99.90
1391;DHT22;690;51.454;7.194;2023-06-05T14:25:07;24.70;99.90
1391;DHT22;690;51.454;7.194;2023-06-05T14:27:36;24.70;99.90
1391;DHT22;690;51.454;7.194;2023-06-05T14:30:03;24.80;99.90
1391;DHT22;690;51.454;7.194;2023-06-05T14:32:32;24.90;99.90
1391;DHT22;690;51.454;7.194;2023-06-05T14:34:59;24.90;99.90
1391;DHT22;690;51.454;7.194;2023-06-05T14:37:27;24.90;99.90
1391;DHT22;690;51.454;7.194;2023-06-05T14:39:54;24.80;99.90
1391;DHT22;690;51.454;7.194;2023-06-05T14:42:22;24.90;99.90
1391;DHT22;690;51.454;7.194;2023-06-05T14:44:49;24.90;99.90
1391;DHT22;690;51.454;7.194;2023-06-05T14:47:16;25.00;99.90
1391;DHT22;690;51.454;7.194;2023-06-05T14:49:43;24.90;99.90
1391;DHT22;690;51.454;7.194;2023-06-05T14:52:10;24.80;99.90
1391;DHT22;690;51.454;7.194;2023-06-05T14:54:38;24.80;99.90
1391;DHT22;690;51.454;7.194;2023-06-05T14:57:06;24.80;99.90
1391;DHT22;690;51.454;7.194;2023-06-05T14:59:33;24.80;99.90
1391;DHT22;690;51.454;7.194;2023-06-05T15:02:00;24.70;99.90
1391;DHT22;690;51.454;7.194;2023-06-05T15:04:26;24.60;99.90
1391;DHT22;690;51.454;7.194;2023-06-05T15:06:54;24.50;99.90
1391;DHT22;690;51.454;7.194;2023-06-05T15:09:21;24.50;99.90
1391;DHT22;690;51.454;7.194;2023-06-05T15:11:50;24.70;99.90
1391;DHT22;690;51.454;7.194;2023-06-05T15:14:18;24.90;99.90
1391;DHT22;690;51.454;7.194;2023-06-05T15:16:45;25.20;99.90
1391;DHT22;690;51.454;7.194;2023-06-05T15:19:12;25.60;99.90
1391;DHT22;690;51.454;7.194;2023-06-05T15:21:40;26.00;99.90
1391;DHT22;690;51.454;7.194;2023-06-05T15:24:07;26.50;99.90
1391;DHT22;690;51.454;7.194;2023-06-05T15:26:34;27.40;99.90
1391;DHT22;690;51.454;7.194;2023-06-05T15:29:02;28.50;99.90
1391;DHT22;690;51.454;7.194;2023-06-05T15:31:29;29.70;99.90
1391;DHT22;690;51.454;7.194;2023-06-05T15:33:57;30.80;99.90
1391;DHT22;690;51.454;7.194;2023-06-05T15:36:23;32.10;99.90
1391;DHT22;690;51.454;7.194;2023-06-05T15:38:51;33.20;99.90
1391;DHT22;690;51.454;7.194;2023-06-05T15:41:18;33.60;99.90
1391;DHT22;690;51.454;7.194;2023-06-05T15:43:45;33.80;99.90
1391;DHT22;690;51.454;7.194;2023-06-05T15:46:13;34.30;99.90
1391;DHT22;690;51.454;7.194;2023-06-05T15:48:40;35.00;99.90
1391;DHT22;690;51.454;7.194;2023-06-05T15:51:07;35.50;99.90
1391;DHT22;690;51.454;7.194;2023-06-05T15:53:35;35.40;99.90
1391;DHT22;690;51.454;7.194;2023-06-05T15:56:02;35.50;99.90
1391;DHT22;690;51.454;7.194;2023-06-05T15:58:29;35.50;99.90
1391;DHT22;690;51.454;7.194;2023-06-05T16:00:55;35.90;99.90
1391;DHT22;690;51.454;7.194;2023-06-05T16:03:24;36.50;99.90
1391;DHT22;690;51.454;7.194;2023-06-05T16:05:51;36.70;99.90
1391;DHT22;690;51.454;7.194;2023-06-05T16:08:18;36.60;99.90
1391;DHT22;690;51.454;7.194;2023-06-05T16:10:47;36.20;99.90
1391;DHT22;690;51.454;7.194;2023-06-05T16:13:14;35.90;99.90
1391;DHT22;690;51.454;7.194;2023-06-05T16:15:42;35.40;99.90
1391;DHT22;690;51.454;7.194;2023-06-05T16:18:09;35.10;99.90
1391;DHT22;690;51.454;7.194;2023-06-05T16:20:37;35.30;99.90
1391;DHT22;690;51.454;7.194;2023-06-05T16:23:04;36.10;99.90
1391;DHT22;690;51.454;7.194;2023-06-05T16:25:32;37.00;99.90
1391;DHT22;690;51.454;7.194;2023-06-05T16:27:58;38.00;99.90
1391;DHT22;690;51.454;7.194;2023-06-05T16:30:25;38.80;99.90
1391;DHT22;690;51.454;7.194;2023-06-05T16:32:52;39.20;99.90
1391;DHT22;690;51.454;7.194;2023-06-05T16:35:19;39.30;99.90
1391;DHT22;690;51.454;7.194;2023-06-05T16:37:48;39.20;99.90